createdAt,value
2023-03-02T00:01:45.677Z,57.81
2023-03-02T00:04:48.609Z,59.85
2023-03-02T00:07:50.404Z,56.82
2023-03-02T00:10:54.583Z,55.13
2023-03-02T00:13:56.502Z,54.24
2023-03-02T00:16:58.320Z,52.70
2023-03-02T00:20:11.748Z,53.30
2023-03-02T00:23:13.772Z,57.76
2023-03-02T00:26:15.702Z,58.33
2023-03-02T00:29:17.504Z,55.79
2023-03-02T00:32:19.374Z,55.92
2023-03-02T00:35:21.314Z,58.13
2023-03-02T00:38:23.220Z,59.02
2023-03-02T00:41:25.183Z,58.00
2023-03-02T00:44:27.065Z,56.16
2023-03-02T00:47:29.746Z,58.43
2023-03-02T00:50:31.630Z,55.93
2023-03-02T00:53:33.627Z,58.63
2023-03-02T00:56:35.535Z,60.88
2023-03-02T00:59:40.407Z,61.37
2023-03-02T01:02:44.209Z,59.90
2023-03-02T01:05:46.317Z,57.32
2023-03-02T01:08:48.155Z,57.59
2023-03-02T01:11:49.999Z,57.44
2023-03-02T01:14:51.934Z,57.43
2023-03-02T01:17:53.880Z,56.27
2023-03-02T01:21:05.890Z,60.28
2023-03-02T01:24:07.863Z,58.65
2023-03-02T01:27:09.770Z,62.70
2023-03-02T01:30:11.947Z,62.01
2023-03-02T01:33:14.268Z,63.04
2023-03-02T01:36:16.465Z,63.71
2023-03-02T01:39:18.458Z,62.79
2023-03-02T01:42:20.329Z,63.72
2023-03-02T01:45:41.076Z,61.47
2023-03-02T01:48:42.924Z,65.28
2023-03-02T01:51:46.532Z,64.51
2023-03-02T01:54:49.909Z,62.85
2023-03-02T01:57:52.265Z,63.25
2023-03-02T02:00:54.467Z,63.05
2023-03-02T02:03:56.445Z,64.70
2023-03-02T02:07:02.576Z,64.74
2023-03-02T02:10:05.342Z,65.64
2023-03-02T02:13:11.000Z,64.10
2023-03-02T02:16:13.012Z,62.71
2023-03-02T02:19:14.948Z,63.49
2023-03-02T02:22:17.770Z,63.33
2023-03-02T02:25:22.704Z,63.92
2023-03-02T02:28:44.960Z,62.27
2023-03-02T02:31:47.665Z,63.33
2023-03-02T02:34:52.781Z,64.03
2023-03-02T02:37:55.741Z,64.25
2023-03-02T02:40:58.780Z,63.26
2023-03-02T02:44:00.645Z,62.34
2023-03-02T02:47:02.503Z,62.25
2023-03-02T02:50:04.548Z,61.77
2023-03-02T02:53:22.711Z,63.16
2023-03-02T02:56:28.958Z,62.37
2023-03-02T02:59:38.085Z,62.02
2023-03-02T03:02:40.941Z,59.98
2023-03-02T03:05:42.766Z,62.38
2023-03-02T03:08:44.697Z,63.28
2023-03-02T03:11:47.019Z,62.93
2023-03-02T03:14:48.940Z,63.45
2023-03-02T03:17:55.094Z,62.71
2023-03-02T03:20:56.908Z,63.23
2023-03-02T03:23:59.047Z,63.23
2023-03-02T03:27:01.438Z,65.33
2023-03-02T03:30:03.847Z,64.45
2023-03-02T03:33:05.701Z,64.06
2023-03-02T03:36:07.827Z,62.16
2023-03-02T03:39:10.039Z,63.15
2023-03-02T03:42:12.092Z,61.87
2023-03-02T03:45:13.960Z,57.62
2023-03-02T03:48:15.772Z,59.43
2023-03-02T03:51:17.846Z,58.15
2023-03-02T03:54:19.814Z,58.88
2023-03-02T03:57:21.620Z,59.96
2023-03-02T04:00:24.292Z,57.85
2023-03-02T04:03:26.253Z,61.33
2023-03-02T04:06:28.220Z,60.26
2023-03-02T04:09:32.294Z,59.80
2023-03-02T04:12:36.210Z,59.23
2023-03-02T04:15:38.486Z,58.26
2023-03-02T04:18:40.359Z,56.81
2023-03-02T04:21:45.094Z,56.69
2023-03-02T04:24:47.663Z,56.28
2023-03-02T04:27:50.098Z,55.71
2023-03-02T04:30:51.972Z,56.25
2023-03-02T04:33:53.893Z,58.66
2023-03-02T04:36:55.902Z,58.62
2023-03-02T04:39:57.807Z,59.93
2023-03-02T04:42:59.683Z,59.60
2023-03-02T04:46:01.634Z,59.74
2023-03-02T04:49:04.365Z,59.96
2023-03-02T04:52:06.443Z,59.99
2023-03-02T04:55:08.556Z,59.29
2023-03-02T04:58:10.642Z,60.14
2023-03-02T05:01:12.833Z,58.12
2023-03-02T05:04:15.174Z,58.19
2023-03-02T05:07:17.024Z,55.75
2023-03-02T05:10:19.543Z,53.99
2023-03-02T05:13:21.355Z,57.14
2023-03-02T05:16:23.496Z,56.91
2023-03-02T05:19:25.481Z,56.13
2023-03-02T05:22:27.325Z,55.26
2023-03-02T05:25:29.856Z,54.60
2023-03-02T05:28:31.723Z,54.81
2023-03-02T05:31:35.350Z,54.27
2023-03-02T05:34:37.303Z,54.07
2023-03-02T05:37:42.644Z,54.55
2023-03-02T05:40:44.692Z,54.75
2023-03-02T05:43:46.534Z,54.66
2023-03-02T05:46:49.595Z,53.32
2023-03-02T05:49:51.527Z,54.41
2023-03-02T05:52:53.408Z,50.71
2023-03-02T05:55:55.307Z,51.88
2023-03-02T05:58:57.224Z,50.21
2023-03-02T06:01:59.540Z,51.48
2023-03-02T06:05:01.489Z,53.04
2023-03-02T06:08:03.533Z,54.99
2023-03-02T06:11:05.389Z,53.25
2023-03-02T06:14:07.247Z,51.56
2023-03-02T06:17:09.065Z,47.30
2023-03-02T06:20:11.690Z,43.66
2023-03-02T06:23:13.935Z,43.07
2023-03-02T06:26:16.058Z,43.30
2023-03-02T06:29:17.895Z,43.10
2023-03-02T06:32:19.897Z,43.56
2023-03-02T06:35:24.021Z,43.01
2023-03-02T06:38:26.130Z,44.24
2023-03-02T06:41:28.136Z,41.81
2023-03-02T06:44:30.085Z,40.92
2023-03-02T06:47:33.402Z,39.46
2023-03-02T06:50:35.371Z,39.04
2023-03-02T06:53:37.350Z,37.23
2023-03-02T06:56:41.015Z,38.12
2023-03-02T06:59:43.076Z,38.44
2023-03-02T07:02:45.292Z,39.30
2023-03-02T07:05:49.025Z,34.89
2023-03-02T07:08:50.962Z,34.89
2023-03-02T07:11:52.788Z,37.37
2023-03-02T07:14:54.836Z,37.35
2023-03-02T07:17:56.761Z,34.84
2023-03-02T07:20:58.758Z,32.35
2023-03-02T07:24:00.903Z,31.42
2023-03-02T07:27:02.755Z,34.18
2023-03-02T07:30:05.378Z,32.20
2023-03-02T07:33:07.240Z,29.66
2023-03-02T07:36:09.147Z,31.01
2023-03-02T07:39:11.141Z,31.53
2023-03-02T07:42:13.180Z,29.65
2023-03-02T07:45:17.017Z,28.37
2023-03-02T07:48:20.001Z,27.57
2023-03-02T07:51:21.914Z,29.15
2023-03-02T07:54:26.548Z,27.44
2023-03-02T07:57:28.415Z,27.93
2023-03-02T08:00:30.274Z,28.52
2023-03-02T08:03:32.155Z,28.26
2023-03-02T08:06:34.073Z,30.30
2023-03-02T08:09:35.921Z,30.44
2023-03-02T08:12:38.061Z,32.29
2023-03-02T08:15:39.889Z,31.32
2023-03-02T08:18:41.962Z,29.58
2023-03-02T08:21:44.052Z,31.28
2023-03-02T08:24:45.940Z,30.14
2023-03-02T08:27:47.909Z,31.84
2023-03-02T08:30:56.826Z,30.49
2023-03-02T08:33:59.727Z,30.06
2023-03-02T08:37:01.864Z,30.57
2023-03-02T08:40:04.053Z,30.82
2023-03-02T08:43:08.074Z,32.38
2023-03-02T08:46:10.850Z,33.65
2023-03-02T08:49:12.943Z,33.92
2023-03-02T08:52:17.733Z,32.53
2023-03-02T08:55:19.827Z,30.79
2023-03-02T08:58:22.060Z,33.19
2023-03-02T09:01:25.666Z,32.99
2023-03-02T09:04:27.807Z,32.79
2023-03-02T09:07:30.974Z,31.76
2023-03-02T09:10:32.956Z,31.81
2023-03-02T09:13:34.941Z,32.42
2023-03-02T09:16:37.196Z,32.17
2023-03-02T09:19:44.257Z,32.41
2023-03-02T09:22:50.851Z,31.51
2023-03-02T09:25:52.984Z,30.74
2023-03-02T09:28:55.765Z,31.81
2023-03-02T09:31:57.774Z,30.97
2023-03-02T09:34:59.890Z,30.83
2023-03-02T09:38:02.076Z,30.84
2023-03-02T09:41:19.731Z,31.05
2023-03-02T09:44:43.446Z,30.64
2023-03-02T09:47:53.072Z,30.26
2023-03-02T09:51:11.656Z,29.77
2023-03-02T09:54:16.118Z,30.76
2023-03-02T09:57:22.526Z,32.33
2023-03-02T10:00:27.848Z,30.82
2023-03-02T10:03:41.589Z,30.46
2023-03-02T10:06:43.854Z,30.18
2023-03-02T10:09:45.951Z,31.24
2023-03-02T10:13:06.741Z,30.42
2023-03-02T10:16:12.793Z,30.11
2023-03-02T10:19:14.970Z,28.25
2023-03-02T10:22:27.604Z,24.50
2023-03-02T10:25:49.304Z,21.85
2023-03-02T10:28:55.154Z,19.82
2023-03-02T10:32:12.489Z,20.59
2023-03-02T10:35:19.449Z,17.41
2023-03-02T10:38:22.681Z,20.08
2023-03-02T10:41:33.068Z,20.47
2023-03-02T10:44:37.895Z,16.69
2023-03-02T10:47:40.232Z,16.20
2023-03-02T10:50:42.618Z,17.85
2023-03-02T10:53:44.692Z,18.20
2023-03-02T10:56:50.450Z,18.51
2023-03-02T10:59:52.534Z,17.67
2023-03-02T11:02:58.514Z,17.06
2023-03-02T11:06:10.879Z,19.76
2023-03-02T11:09:13.324Z,20.84
2023-03-02T11:12:15.772Z,19.12
2023-03-02T11:15:19.859Z,18.46
2023-03-02T11:18:28.276Z,21.73
2023-03-02T11:21:33.686Z,18.19
2023-03-02T11:24:37.239Z,21.59
2023-03-02T11:27:41.775Z,22.58
2023-03-02T11:30:45.985Z,24.99
2023-03-02T11:33:57.961Z,21.83
2023-03-02T11:37:04.041Z,22.85
2023-03-02T11:40:09.268Z,23.28
2023-03-02T11:43:11.252Z,25.43
2023-03-02T11:46:21.547Z,24.49
2023-03-02T11:49:25.596Z,26.90
2023-03-02T11:52:28.190Z,26.98
2023-03-02T11:55:34.098Z,24.72
2023-03-02T11:58:36.081Z,22.12
2023-03-02T12:01:40.506Z,21.85
2023-03-02T12:04:45.304Z,24.04
2023-03-02T12:07:56.408Z,22.76
2023-03-02T12:11:00.215Z,24.71
2023-03-02T12:14:07.732Z,24.70
2023-03-02T12:17:36.708Z,25.82
2023-03-02T12:20:41.558Z,27.22
2023-03-02T12:23:49.476Z,25.65
2023-03-02T12:27:00.505Z,27.86
2023-03-02T12:30:12.906Z,27.84
2023-03-02T12:33:20.288Z,28.41
2023-03-02T12:36:25.231Z,24.43
2023-03-02T12:39:51.349Z,24.60
2023-03-02T12:42:55.067Z,24.80
2023-03-02T12:46:06.665Z,24.68
2023-03-02T12:49:36.418Z,24.81
2023-03-02T12:52:38.510Z,25.71
2023-03-02T12:55:40.460Z,26.64
2023-03-02T12:58:49.162Z,26.39
2023-03-02T13:01:51.091Z,26.58
2023-03-02T13:04:54.305Z,27.15
2023-03-02T13:08:00.695Z,24.59
2023-03-02T13:11:02.631Z,24.42
2023-03-02T13:14:18.141Z,19.87
2023-03-02T13:17:29.677Z,18.73
2023-03-02T13:20:31.749Z,20.25
2023-03-02T13:23:34.045Z,20.19
2023-03-02T13:26:36.570Z,19.73
2023-03-02T13:29:38.474Z,19.58
2023-03-02T13:32:41.206Z,17.16
2023-03-02T13:35:44.893Z,21.84
2023-03-02T13:38:48.633Z,16.77
2023-03-02T13:41:59.893Z,17.37
2023-03-02T13:45:31.593Z,16.17
2023-03-02T13:48:33.898Z,15.67
2023-03-02T13:51:37.151Z,15.80
2023-03-02T13:54:40.840Z,16.93
2023-03-02T13:57:42.982Z,18.59
2023-03-02T14:00:44.956Z,15.46
2023-03-02T14:03:46.913Z,15.31
2023-03-02T14:06:49.586Z,16.53
2023-03-02T14:09:51.507Z,15.99
2023-03-02T14:13:02.058Z,17.30
2023-03-02T14:16:06.970Z,19.24
2023-03-02T14:19:10.153Z,22.15
2023-03-02T14:22:14.916Z,24.34
2023-03-02T14:25:17.027Z,27.90
2023-03-02T14:28:21.691Z,26.09
2023-03-02T14:31:24.732Z,27.57
2023-03-02T14:34:26.848Z,28.23
2023-03-02T14:37:29.185Z,32.36
2023-03-02T14:40:31.419Z,30.60
2023-03-02T14:43:33.542Z,29.75
2023-03-02T14:46:35.756Z,29.24
2023-03-02T14:49:38.186Z,30.55
2023-03-02T14:52:56.700Z,30.65
2023-03-02T14:55:58.742Z,32.32
2023-03-02T14:59:00.639Z,33.36
2023-03-02T15:02:12.824Z,32.23
2023-03-02T15:05:21.195Z,33.38
2023-03-02T15:08:23.458Z,31.86
2023-03-02T15:11:25.653Z,33.59
2023-03-02T15:14:27.588Z,33.51
2023-03-02T15:17:29.583Z,35.58
2023-03-02T15:20:31.480Z,33.94
2023-03-02T15:23:33.593Z,35.04
2023-03-02T15:26:35.658Z,33.56
2023-03-02T15:29:37.569Z,33.38
2023-03-02T15:32:39.435Z,32.68
2023-03-02T15:35:41.383Z,31.87
2023-03-02T15:38:43.385Z,32.62
2023-03-02T15:41:45.366Z,32.84
2023-03-02T15:44:47.697Z,35.28
2023-03-02T15:47:49.556Z,34.22
2023-03-02T15:50:57.756Z,33.96
2023-03-02T15:53:59.719Z,35.74
2023-03-02T15:57:01.776Z,36.02
2023-03-02T16:00:05.313Z,33.69
2023-03-02T16:03:07.320Z,34.11
2023-03-02T16:06:09.169Z,32.89
2023-03-02T16:09:11.089Z,33.16
2023-03-02T16:12:13.020Z,33.05
2023-03-02T16:15:14.994Z,33.08
2023-03-02T16:18:17.110Z,33.21
2023-03-02T16:21:19.036Z,33.87
2023-03-02T16:24:21.318Z,34.46
2023-03-02T16:27:23.171Z,34.10
2023-03-02T16:30:25.041Z,34.46
2023-03-02T16:33:26.901Z,34.67
2023-03-02T16:36:28.833Z,35.29
2023-03-02T16:39:30.754Z,35.08
2023-03-02T16:42:32.819Z,35.25
2023-03-02T16:45:34.878Z,35.60
2023-03-02T16:48:36.960Z,35.42
2023-03-02T16:51:39.075Z,35.61
2023-03-02T16:54:40.897Z,35.68
2023-03-02T16:57:42.935Z,36.73
2023-03-02T17:00:44.914Z,35.94
2023-03-02T17:03:47.226Z,36.71
2023-03-02T17:07:00.505Z,36.05
2023-03-02T17:10:03.545Z,36.12
2023-03-02T17:13:05.542Z,38.58
2023-03-02T17:16:07.603Z,39.00
2023-03-02T17:19:09.440Z,39.60
2023-03-02T17:22:11.270Z,40.47
2023-03-02T17:25:13.477Z,41.21
2023-03-02T17:28:15.401Z,40.53
2023-03-02T17:31:17.389Z,39.53
2023-03-02T17:34:19.293Z,40.80
2023-03-02T17:37:21.330Z,41.63
2023-03-02T17:40:23.235Z,41.67
2023-03-02T17:43:25.207Z,42.26
2023-03-02T17:46:27.711Z,42.28
2023-03-02T17:49:30.448Z,42.13
2023-03-02T17:52:32.373Z,40.66
2023-03-02T17:55:34.702Z,40.72
2023-03-02T17:58:44.661Z,41.20
2023-03-02T18:01:47.305Z,41.75
2023-03-02T18:04:49.338Z,40.96
2023-03-02T18:07:52.838Z,41.54
2023-03-02T18:10:54.730Z,41.82
2023-03-02T18:13:56.694Z,41.78
2023-03-02T18:16:58.568Z,42.16
2023-03-02T18:20:00.604Z,42.62
2023-03-02T18:23:02.504Z,43.44
2023-03-02T18:26:04.487Z,43.59
2023-03-02T18:29:06.440Z,44.56
2023-03-02T18:32:09.236Z,46.02
2023-03-02T18:35:11.481Z,46.65
2023-03-02T18:38:13.313Z,46.80
2023-03-02T18:41:15.270Z,47.60
2023-03-02T18:44:17.821Z,47.73
2023-03-02T18:47:19.675Z,47.32
2023-03-02T18:50:21.957Z,46.59
2023-03-02T18:53:23.841Z,47.15
2023-03-02T18:56:25.817Z,46.53
2023-03-02T18:59:28.075Z,46.39
2023-03-02T19:02:29.993Z,46.82
2023-03-02T19:05:31.871Z,46.64
2023-03-02T19:08:35.414Z,46.71
2023-03-02T19:11:37.401Z,47.03
2023-03-02T19:14:39.739Z,47.66
2023-03-02T19:17:42.657Z,48.43
2023-03-02T19:20:48.430Z,49.03
2023-03-02T19:23:50.330Z,49.32
2023-03-02T19:26:52.484Z,49.44
2023-03-02T19:29:54.546Z,49.92
2023-03-02T19:32:56.442Z,49.88
2023-03-02T19:35:58.349Z,49.33
2023-03-02T19:39:00.393Z,48.80
2023-03-02T19:42:02.377Z,48.34
2023-03-02T19:45:04.619Z,48.58
2023-03-02T19:48:06.779Z,48.52
2023-03-02T19:51:09.325Z,48.95
2023-03-02T19:54:11.128Z,50.05
2023-03-02T19:57:13.126Z,50.33
2023-03-02T20:00:15.666Z,50.15
2023-03-02T20:03:17.571Z,48.23
2023-03-02T20:06:20.325Z,50.53
2023-03-02T20:09:24.210Z,49.79
2023-03-02T20:12:26.649Z,48.31
2023-03-02T20:15:28.658Z,48.69
2023-03-02T20:18:30.730Z,50.43
2023-03-02T20:21:32.828Z,48.40
2023-03-02T20:24:34.696Z,48.71
2023-03-02T20:27:36.521Z,49.49
2023-03-02T20:30:40.142Z,48.84
2023-03-02T20:33:43.653Z,49.08
2023-03-02T20:36:45.870Z,49.95
2023-03-02T20:39:49.596Z,50.62
2023-03-02T20:42:51.651Z,50.82
2023-03-02T20:45:54.204Z,50.58
2023-03-02T20:48:56.351Z,50.45
2023-03-02T20:51:59.313Z,50.93
2023-03-02T20:55:01.827Z,51.17
2023-03-02T20:58:05.471Z,52.65
2023-03-02T21:01:07.759Z,51.73
2023-03-02T21:04:09.715Z,52.63
2023-03-02T21:07:11.670Z,52.92
2023-03-02T21:10:14.979Z,53.13
2023-03-02T21:13:19.293Z,53.11
2023-03-02T21:16:23.986Z,53.26
2023-03-02T21:19:25.971Z,52.43
2023-03-02T21:22:27.888Z,52.16
2023-03-02T21:25:29.824Z,52.82
2023-03-02T21:28:31.641Z,52.50
2023-03-02T21:31:33.556Z,52.66
2023-03-02T21:34:38.404Z,53.80
2023-03-02T21:37:43.985Z,53.65
2023-03-02T21:40:46.128Z,52.92
2023-03-02T21:43:48.416Z,53.99
2023-03-02T21:46:50.888Z,53.37
2023-03-02T21:49:53.111Z,54.38
2023-03-02T21:52:55.639Z,52.82
2023-03-02T21:55:57.526Z,53.02
2023-03-02T21:58:59.521Z,55.78
2023-03-02T22:02:01.598Z,54.53
2023-03-02T22:05:04.713Z,54.63
2023-03-02T22:08:06.915Z,53.54
2023-03-02T22:11:11.509Z,55.15
2023-03-02T22:14:14.562Z,56.48
2023-03-02T22:17:24.636Z,55.43
2023-03-02T22:20:26.804Z,55.24
2023-03-02T22:23:28.685Z,53.34
2023-03-02T22:26:30.637Z,54.72
2023-03-02T22:29:38.755Z,55.40
2023-03-02T22:32:40.651Z,53.93
2023-03-02T22:35:42.738Z,53.55
2023-03-02T22:38:44.696Z,54.61
2023-03-02T22:41:46.612Z,57.25
2023-03-02T22:45:07.110Z,57.11
2023-03-02T22:48:28.694Z,56.05
2023-03-02T22:51:31.020Z,57.23
2023-03-02T22:54:37.131Z,57.66
2023-03-02T22:57:39.086Z,56.33
2023-03-02T23:00:41.148Z,57.83
2023-03-02T23:03:43.853Z,58.77
2023-03-02T23:06:47.290Z,58.95
2023-03-02T23:09:49.351Z,58.63
2023-03-02T23:12:51.217Z,59.40
2023-03-02T23:15:53.184Z,60.69
2023-03-02T23:18:56.112Z,59.86
2023-03-02T23:21:58.154Z,60.17
2023-03-02T23:25:00.044Z,59.16
2023-03-02T23:28:02.020Z,59.07
2023-03-02T23:31:03.919Z,60.43
2023-03-02T23:34:06.079Z,61.01
2023-03-02T23:37:07.915Z,57.86
2023-03-02T23:40:10.135Z,58.83
2023-03-02T23:43:12.027Z,60.71
2023-03-02T23:46:14.428Z,59.78
2023-03-02T23:49:16.591Z,58.13
2023-03-02T23:52:18.469Z,57.76
2023-03-02T23:55:20.350Z,56.39
2023-03-02T23:58:22.387Z,57.40
